Time,TemperatureF,DewpointF,PressureIn,WindDirection,WindDirectionDegrees,WindSpeedMPH,WindSpeedGustMPH,Humidity,HourlyPrecipIn,Conditions,Clouds,dailyrainin,SoftwareType,DateUTC
2013-08-23 00:22:00,51.0,50.0,-100.00,South,180,0.0,1.0,95,-99.99,,,-99.99,,2013-08-23 05:22:00,
2013-08-23 00:34:00,51.0,50.0,-100.00,South,180,0.0,1.0,95,-99.99,,,-99.99,,2013-08-23 05:34:00,
2013-08-23 00:42:00,51.0,50.0,-100.00,South,180,0.0,1.0,95,-99.99,,,-99.99,,2013-08-23 05:42:00,
2013-08-23 00:52:00,51.0,50.0,-100.00,South,180,0.0,1.0,95,-99.99,,,-99.99,,2013-08-23 05:52:00,
2013-08-23 01:02:00,51.0,50.0,-100.00,South,180,0.0,1.0,95,-99.99,,,-99.99,,2013-08-23 06:02:00,
2013-08-23 01:42:00,50.0,49.0,-100.00,South,190,0.0,0.0,97,-99.99,,,-99.99,,2013-08-23 06:42:00,
2013-08-23 01:52:00,50.0,49.0,-100.00,South,190,0.0,0.0,97,-99.99,,,-99.99,,2013-08-23 06:52:00,
2013-08-23 02:01:00,50.0,49.0,-100.00,South,190,0.0,0.0,97,-99.99,,,-99.99,,2013-08-23 07:01:00,
2013-08-23 02:22:00,50.0,49.0,-100.00,South,190,0.0,0.0,98,-99.99,,,-99.99,,2013-08-23 07:22:00,
2013-08-23 02:32:00,50.0,49.0,-100.00,South,190,0.0,0.0,98,-99.99,,,-99.99,,2013-08-23 07:32:00,
2013-08-23 02:42:00,50.0,49.0,-100.00,South,190,0.0,0.0,98,-99.99,,,-99.99,,2013-08-23 07:42:00,
2013-08-23 02:52:00,50.0,49.0,-100.00,South,190,0.0,0.0,98,-99.99,,,-99.99,,2013-08-23 07:52:00,
2013-08-23 03:02:00,50.0,49.0,-100.00,South,190,0.0,0.0,98,-99.99,,,-99.99,,2013-08-23 08:02:00,
2013-08-23 03:22:00,49.0,48.0,-100.00,South,190,0.0,0.0,98,-99.99,,,-99.99,,2013-08-23 08:22:00,
2013-08-23 03:32:00,49.0,48.0,-100.00,South,190,0.0,0.0,98,-99.99,,,-99.99,,2013-08-23 08:32:00,
2013-08-23 03:42:00,49.0,48.0,-100.00,South,190,0.0,0.0,98,-99.99,,,-99.99,,2013-08-23 08:42:00,
2013-08-23 03:52:00,49.0,48.0,-100.00,South,190,0.0,0.0,98,-99.99,,,-99.99,,2013-08-23 08:52:00,
2013-08-23 04:01:00,49.0,48.0,-100.00,South,190,0.0,0.0,98,-99.99,,,-99.99,,2013-08-23 09:01:00,
2013-08-23 05:23:00,46.0,46.0,-100.00,North,0,0.0,0.0,99,-99.99,,,-99.99,,2013-08-23 10:23:00,
2013-08-23 05:33:00,46.0,46.0,-100.00,North,0,0.0,0.0,99,-99.99,,,-99.99,,2013-08-23 10:33:00,
2013-08-23 05:42:00,46.0,46.0,-100.00,North,0,0.0,0.0,99,-99.99,,,-99.99,,2013-08-23 10:42:00,
2013-08-23 05:53:00,46.0,46.0,-100.00,North,0,0.0,0.0,99,-99.99,,,-99.99,,2013-08-23 10:53:00,
2013-08-23 06:02:00,46.0,46.0,-100.00,North,0,0.0,0.0,99,-99.99,,,-99.99,,2013-08-23 11:02:00,
2013-08-23 06:22:00,46.0,46.0,-100.00,North,10,0.0,1.0,99,-99.99,,,-99.99,,2013-08-23 11:22:00,
2013-08-23 06:33:00,46.0,46.0,-100.00,North,10,0.0,1.0,99,-99.99,,,-99.99,,2013-08-23 11:33:00,
2013-08-23 06:42:00,46.0,46.0,-100.00,North,10,0.0,1.0,99,-99.99,,,-99.99,,2013-08-23 11:42:00,
2013-08-23 06:53:00,46.0,46.0,-100.00,North,10,0.0,1.0,99,-99.99,,,-99.99,,2013-08-23 11:53:00,
2013-08-23 07:01:00,46.0,46.0,-100.00,North,10,0.0,1.0,99,-99.99,,,-99.99,,2013-08-23 12:01:00,
2013-08-23 07:02:00,49.0,48.0,-100.00,North,5,0.0,0.0,99,-99.99,,,-99.99,,2013-08-23 12:02:00,
2013-08-23 07:22:00,49.0,48.0,-100.00,North,5,0.0,0.0,99,-99.99,,,-99.99,,2013-08-23 12:22:00,
2013-08-23 07:32:00,49.0,48.0,-100.00,North,5,0.0,0.0,99,-99.99,,,-99.99,,2013-08-23 12:32:00,
2013-08-23 07:42:00,49.0,48.0,-100.00,North,5,0.0,0.0,99,-99.99,,,-99.99,,2013-08-23 12:42:00,
2013-08-23 07:52:00,49.0,48.0,-100.00,North,5,0.0,0.0,99,-99.99,,,-99.99,,2013-08-23 12:52:00,
2013-08-23 08:42:00,62.0,46.0,-100.00,SSE,155,4.0,9.0,56,-99.99,,,-99.99,,2013-08-23 13:42:00,
2013-08-23 08:53:00,62.0,46.0,-100.00,SSE,155,4.0,9.0,56,-99.99,,,-99.99,,2013-08-23 13:53:00,
2013-08-23 09:02:00,62.0,46.0,-100.00,SSE,155,4.0,9.0,56,-99.99,,,-99.99,,2013-08-23 14:02:00,
2013-08-23 09:22:00,66.0,44.0,-100.00,SSW,195,4.0,10.0,45,-99.99,,,-99.99,,2013-08-23 14:22:00,
2013-08-23 09:32:00,66.0,44.0,-100.00,SSW,195,4.0,10.0,45,-99.99,,,-99.99,,2013-08-23 14:32:00,
2013-08-23 09:42:00,66.0,44.0,-100.00,SSW,195,4.0,10.0,45,-99.99,,,-99.99,,2013-08-23 14:42:00,
2013-08-23 09:52:00,66.0,44.0,-100.00,SSW,195,4.0,10.0,45,-99.99,,,-99.99,,2013-08-23 14:52:00,
2013-08-23 10:01:00,66.0,44.0,-100.00,SSW,195,4.0,10.0,45,-99.99,,,-99.99,,2013-08-23 15:01:00,
2013-08-23 10:03:00,71.0,44.0,-100.00,South,170,6.0,10.0,39,-99.99,,,-99.99,,2013-08-23 15:03:00,
2013-08-23 10:22:00,71.0,44.0,-100.00,South,170,6.0,10.0,39,-99.99,,,-99.99,,2013-08-23 15:22:00,
2013-08-23 10:33:00,71.0,44.0,-100.00,South,170,6.0,10.0,39,-99.99,,,-99.99,,2013-08-23 15:33:00,
2013-08-23 10:44:00,71.0,44.0,-100.00,South,170,6.0,10.0,39,-99.99,,,-99.99,,2013-08-23 15:44:00,
2013-08-23 10:54:00,71.0,44.0,-100.00,South,170,6.0,10.0,39,-99.99,,,-99.99,,2013-08-23 15:54:00,
2013-08-23 11:03:00,72.0,44.0,-100.00,SSE,150,7.0,14.0,37,-99.99,,,-99.99,,2013-08-23 16:03:00,
2013-08-23 11:24:00,72.0,44.0,-100.00,SSE,150,7.0,14.0,37,-99.99,,,-99.99,,2013-08-23 16:24:00,
2013-08-23 11:34:00,72.0,44.0,-100.00,SSE,150,7.0,14.0,37,-99.99,,,-99.99,,2013-08-23 16:34:00,
2013-08-23 11:42:00,72.0,44.0,-100.00,SSE,150,7.0,14.0,37,-99.99,,,-99.99,,2013-08-23 16:42:00,
2013-08-23 11:53:00,72.0,44.0,-100.00,SSE,150,7.0,14.0,37,-99.99,,,-99.99,,2013-08-23 16:53:00,
2013-08-23 12:02:00,75.0,46.0,-100.00,SSE,150,6.0,11.0,36,-99.99,,,-99.99,,2013-08-23 17:02:00,
2013-08-23 12:24:00,75.0,46.0,-100.00,SSE,150,6.0,11.0,36,-99.99,,,-99.99,,2013-08-23 17:24:00,
2013-08-23 12:34:00,75.0,46.0,-100.00,SSE,150,6.0,11.0,36,-99.99,,,-99.99,,2013-08-23 17:34:00,
2013-08-23 12:43:00,75.0,46.0,-100.00,SSE,150,6.0,11.0,36,-99.99,,,-99.99,,2013-08-23 17:43:00,
2013-08-23 12:53:00,75.0,46.0,-100.00,SSE,150,6.0,11.0,36,-99.99,,,-99.99,,2013-08-23 17:53:00,
2013-08-23 13:22:00,79.0,49.0,-100.00,South,180,3.0,9.0,35,-99.99,,,-99.99,,2013-08-23 18:22:00,
2013-08-23 13:32:00,79.0,49.0,-100.00,South,180,3.0,9.0,35,-99.99,,,-99.99,,2013-08-23 18:32:00,
2013-08-23 13:42:00,79.0,49.0,-100.00,South,180,3.0,9.0,35,-99.99,,,-99.99,,2013-08-23 18:42:00,
2013-08-23 13:52:00,79.0,49.0,-100.00,South,180,3.0,9.0,35,-99.99,,,-99.99,,2013-08-23 18:52:00,
2013-08-23 14:01:00,79.0,49.0,-100.00,South,180,3.0,9.0,35,-99.99,,,-99.99,,2013-08-23 19:01:00,
2013-08-23 14:22:00,79.0,50.0,-100.00,South,180,4.0,11.0,36,-99.99,,,-99.99,,2013-08-23 19:22:00,
2013-08-23 14:32:00,79.0,50.0,-100.00,South,180,4.0,11.0,36,-99.99,,,-99.99,,2013-08-23 19:32:00,
2013-08-23 14:42:00,79.0,50.0,-100.00,South,180,4.0,11.0,36,-99.99,,,-99.99,,2013-08-23 19:42:00,
2013-08-23 14:52:00,79.0,50.0,-100.00,South,180,4.0,11.0,36,-99.99,,,-99.99,,2013-08-23 19:52:00,
2013-08-23 15:02:00,79.0,50.0,-100.00,South,180,4.0,11.0,36,-99.99,,,-99.99,,2013-08-23 20:02:00,
2013-08-23 15:22:00,80.0,50.0,-100.00,SW,220,5.0,11.0,35,-99.99,,,-99.99,,2013-08-23 20:22:00,
2013-08-23 15:32:00,80.0,50.0,-100.00,SW,220,5.0,11.0,35,-99.99,,,-99.99,,2013-08-23 20:32:00,
2013-08-23 15:42:00,80.0,50.0,-100.00,SW,220,5.0,11.0,35,-99.99,,,-99.99,,2013-08-23 20:42:00,
2013-08-23 15:52:00,80.0,50.0,-100.00,SW,220,5.0,11.0,35,-99.99,,,-99.99,,2013-08-23 20:52:00,
2013-08-23 16:02:00,79.0,50.0,-100.00,WSW,250,2.0,9.0,37,-99.99,,,-99.99,,2013-08-23 21:02:00,
2013-08-23 16:22:00,79.0,50.0,-100.00,WSW,250,2.0,9.0,37,-99.99,,,-99.99,,2013-08-23 21:22:00,
2013-08-23 16:34:00,79.0,50.0,-100.00,WSW,250,2.0,9.0,37,-99.99,,,-99.99,,2013-08-23 21:34:00,
2013-08-23 16:44:00,79.0,50.0,-100.00,WSW,250,2.0,9.0,37,-99.99,,,-99.99,,2013-08-23 21:44:00,
2013-08-23 16:54:00,79.0,50.0,-100.00,WSW,250,2.0,9.0,37,-99.99,,,-99.99,,2013-08-23 21:54:00,
2013-08-23 17:02:00,79.0,51.0,-100.00,SSE,155,6.0,14.0,38,-99.99,,,-99.99,,2013-08-23 22:02:00,
2013-08-23 17:24:00,79.0,51.0,-100.00,SSE,155,6.0,14.0,38,-99.99,,,-99.99,,2013-08-23 22:24:00,
2013-08-23 17:33:00,79.0,51.0,-100.00,SSE,155,6.0,14.0,38,-99.99,,,-99.99,,2013-08-23 22:33:00,
2013-08-23 17:43:00,79.0,51.0,-100.00,SSE,155,6.0,14.0,38,-99.99,,,-99.99,,2013-08-23 22:43:00,
2013-08-23 17:53:00,79.0,51.0,-100.00,SSE,155,6.0,14.0,38,-99.99,,,-99.99,,2013-08-23 22:53:00,
2013-08-23 18:22:00,78.0,52.0,-100.00,SSW,195,4.0,7.0,40,-99.99,,,-99.99,,2013-08-23 23:22:00,
2013-08-23 18:33:00,78.0,52.0,-100.00,SSW,195,4.0,7.0,40,-99.99,,,-99.99,,2013-08-23 23:33:00,
2013-08-23 18:43:00,78.0,52.0,-100.00,SSW,195,4.0,7.0,40,-99.99,,,-99.99,,2013-08-23 23:43:00,
2013-08-23 18:54:00,78.0,52.0,-100.00,SSW,195,4.0,7.0,40,-99.99,,,-99.99,,2013-08-23 23:54:00,
2013-08-23 19:02:00,78.0,52.0,-100.00,SSW,195,4.0,7.0,40,-99.99,,,-99.99,,2013-08-24 00:02:00,
2013-08-23 19:22:00,76.0,54.0,-100.00,South,175,3.0,6.0,48,-99.99,,,-99.99,,2013-08-24 00:22:00,
2013-08-23 19:32:00,76.0,54.0,-100.00,South,175,3.0,6.0,48,-99.99,,,-99.99,,2013-08-24 00:32:00,
2013-08-23 19:43:00,76.0,54.0,-100.00,South,175,3.0,6.0,48,-99.99,,,-99.99,,2013-08-24 00:43:00,
2013-08-23 19:53:00,76.0,54.0,-100.00,South,175,3.0,6.0,48,-99.99,,,-99.99,,2013-08-24 00:53:00,
2013-08-23 20:02:00,76.0,54.0,-100.00,South,175,3.0,6.0,48,-99.99,,,-99.99,,2013-08-24 01:02:00,
2013-08-23 20:42:00,72.0,57.0,-100.00,South,180,2.0,6.0,60,-99.99,,,-99.99,,2013-08-24 01:42:00,
2013-08-23 20:53:00,72.0,57.0,-100.00,South,180,2.0,6.0,60,-99.99,,,-99.99,,2013-08-24 01:53:00,
2013-08-23 21:02:00,72.0,57.0,-100.00,South,180,2.0,6.0,60,-99.99,,,-99.99,,2013-08-24 02:02:00,
2013-08-23 21:22:00,68.0,60.0,-100.00,SSE,155,4.0,7.0,76,-99.99,,,-99.99,,2013-08-24 02:22:00,
2013-08-23 21:32:00,68.0,60.0,-100.00,SSE,155,4.0,7.0,76,-99.99,,,-99.99,,2013-08-24 02:32:00,
2013-08-23 21:42:00,68.0,60.0,-100.00,SSE,155,4.0,7.0,76,-99.99,,,-99.99,,2013-08-24 02:42:00,
2013-08-23 21:52:00,68.0,60.0,-100.00,SSE,155,4.0,7.0,76,-99.99,,,-99.99,,2013-08-24 02:52:00,
2013-08-23 22:03:00,69.0,59.0,-100.00,South,175,4.0,11.0,71,-99.99,,,-99.99,,2013-08-24 03:03:00,
2013-08-23 22:22:00,69.0,59.0,-100.00,South,175,4.0,11.0,71,-99.99,,,-99.99,,2013-08-24 03:22:00,
2013-08-23 22:34:00,69.0,59.0,-100.00,South,175,4.0,11.0,71,-99.99,,,-99.99,,2013-08-24 03:34:00,
2013-08-23 22:44:00,69.0,59.0,-100.00,South,175,4.0,11.0,71,-99.99,,,-99.99,,2013-08-24 03:44:00,
2013-08-23 22:55:00,69.0,59.0,-100.00,South,175,4.0,11.0,71,-99.99,,,-99.99,,2013-08-24 03:55:00,
2013-08-23 23:01:00,67.0,59.0,-100.00,SSE,155,4.0,8.0,74,-99.99,,,-99.99,,2013-08-24 04:01:00,
2013-08-23 23:24:00,67.0,59.0,-100.00,SSE,155,4.0,8.0,74,-99.99,,,-99.99,,2013-08-24 04:24:00,
2013-08-23 23:34:00,67.0,59.0,-100.00,SSE,155,4.0,8.0,74,-99.99,,,-99.99,,2013-08-24 04:34:00,
2013-08-23 23:44:00,67.0,59.0,-100.00,SSE,155,4.0,8.0,74,-99.99,,,-99.99,,2013-08-24 04:44:00,
2013-08-23 23:53:00,67.0,59.0,-100.00,SSE,155,4.0,8.0,74,-99.99,,,-99.99,,2013-08-24 04:53:00,